Goodland, KS

9:56 PM MDT on July 01, 2015 (GMT -0600)
City of Gld Backyard Station | | Change Station
CLOSE
Current Station
Personal Weather Station
Location: Goodland, KS
Elevation: 3711 ft
Nearby Weather Stations

Elev 3711 ft 39.34 °N, 101.71 °W | Updated 12 minutes ago

Clear
Clear
73.4 °F
Feels Like 76 °F
N
4.7
Wind Variable Wind from WSW

Today
High -- | Low -- °F
--% Chance of Precip.
Yesterday
High -- | Low -- °F
Precip. -- in
5:23 AM 8:17 PM
Full, 100% visible
Pressure 29.90 in
Visibility 10.0 miles
Clouds Clear
Heat Index 76 °F
Dew Point 59 °F
Humidity 61%
Rainfall 0.00 in
Snow Depth Not available.
UV 0 out of 12
Pollen 6.40 out of 12
Air Quality Not available.
Flu Activity Not available.
METAR KGLD 020353Z AUTO 26014KT 10SM CLR 22/16 A3005 RMK AO2 PK WND 27028/0317 TSE0259 SLP125 T02220156

More Conditions Fewer Conditions

Pressure 29.90 in
Visibility 10.0 miles
Clouds Clear
Heat Index 76 °F
Dew Point 59 °F
Humidity 61%
Rainfall 0.00 in
Snow Depth Not available.
UV 0 out of 12
Pollen 6.40 out of 12
Air Quality Not available.
Flu Activity Not available.
METAR KGLD 020353Z AUTO 26014KT 10SM CLR 22/16 A3005 RMK AO2 PK WND 27028/0317 TSE0259 SLP125 T02220156

More Conditions Fewer Conditions

Nowcast | as of 9:28 PM MDT on July 1, 2015

At 927 PM MDT /1027 PM CDT/...Doppler radar indicated a gust front... along a line extending from 9 miles southwest of Crete to 9 miles west of Benkelman to 12 miles northeast of Goodland to 6 miles north of Wallace to 13 miles south of Horace moving east at 30 mph. West or northwest winds up to 40 mph will be possible. Locations impacted include... Colby...Leoti...Benkelman...Tribune...Brewster...Levant...Edson... Bird City...Stratton and Winona. This includes Interstate 70 in Kansas between mile markers 22 and 59.

×

10-Day Weather Forecast

×

Almanac

Astronomy

Jul. 01, 2015 Rise Set
Actual Time
Civil Twilight
Nautical Twilight
Astronomical Twilight
Moon
Length of Visible Light
Length of Day
Tomorrow will be .
, % of the Moon is Illuminated

Today's Extremes

State Highs State Lows

Community

WunderPhotos

Upload Photos

1,834,395 photos uploaded!

WunderBlogs® & News

Nearby

Air Quality

  Air Quality AQ Index Pollutant
Not available.

Snow Depth

Station Depth Elevation

Earthquake Activity

City Distance Mag. Time & Date
Minimum magnitude displayed is 2.5.

Coastal Water Temperatures

Place Temperature

Stations

Nearby Weather Stations

Station Location Temp. Windchill Dew Point Humidity Wind Precip. Elev Updated Type